createdAt,value
2018-09-11T00:00:55.116Z,1016.62
2018-09-11T00:01:55.169Z,1016.67
2018-09-11T00:02:55.139Z,1016.68
2018-09-11T00:03:55.176Z,1016.68
2018-09-11T00:04:55.147Z,1016.67
2018-09-11T00:05:55.182Z,1016.74
2018-09-11T00:06:55.266Z,1016.72
2018-09-11T00:07:55.211Z,1016.74
2018-09-11T00:08:55.217Z,1016.74
2018-09-11T00:09:55.234Z,1016.72
2018-09-11T00:10:55.243Z,1016.74
2018-09-11T00:11:55.237Z,1016.70
2018-09-11T00:12:55.283Z,1016.75
2018-09-11T00:13:55.263Z,1016.71
2018-09-11T00:14:55.304Z,1016.72
2018-09-11T00:15:55.308Z,1016.77
2018-09-11T00:16:55.311Z,1016.77
2018-09-11T00:17:55.325Z,1016.77
2018-09-11T00:18:55.357Z,1016.81
2018-09-11T00:19:55.387Z,1016.84
2018-09-11T00:20:55.367Z,1016.80
2018-09-11T00:21:55.362Z,1016.84
2018-09-11T00:22:55.378Z,1016.85
2018-09-11T00:23:55.428Z,1016.82
2018-09-11T00:24:55.395Z,1016.86
2018-09-11T00:25:55.464Z,1016.86
2018-09-11T00:26:55.405Z,1016.83
2018-09-11T00:27:55.449Z,1016.86
2018-09-11T00:28:55.450Z,1016.87
2018-09-11T00:29:55.482Z,1016.84
2018-09-11T00:30:55.498Z,1016.89
2018-09-11T00:31:55.514Z,1016.91
2018-09-11T00:32:55.496Z,1016.91
2018-09-11T00:33:55.546Z,1016.97
2018-09-11T00:34:55.538Z,1016.99
2018-09-11T00:35:55.538Z,1016.92
2018-09-11T00:36:55.554Z,1016.91
2018-09-11T00:37:55.556Z,1016.94
2018-09-11T00:38:55.564Z,1016.93
2018-09-11T00:39:55.579Z,1016.86
2018-09-11T00:40:55.626Z,1016.81
2018-09-11T00:41:55.612Z,1016.79
2018-09-11T00:42:55.653Z,1016.78
2018-09-11T00:43:55.610Z,1016.74
2018-09-11T00:44:55.647Z,1016.78
2018-09-11T00:45:55.647Z,1016.72
2018-09-11T00:46:55.640Z,1016.74
2018-09-11T00:47:55.723Z,1016.73
2018-09-11T00:48:55.670Z,1016.69
2018-09-11T00:49:55.748Z,1016.71
2018-09-11T00:50:55.755Z,1016.70
2018-09-11T00:51:55.777Z,1016.67
2018-09-11T00:52:55.732Z,1016.69
2018-09-11T00:53:55.720Z,1016.68
2018-09-11T00:54:55.766Z,1016.68
2018-09-11T00:55:55.801Z,1016.66
2018-09-11T00:56:55.786Z,1016.64
2018-09-11T00:57:55.961Z,1016.62
2018-09-11T00:58:55.808Z,1016.65
2018-09-11T00:59:55.793Z,1016.66
2018-09-11T01:00:55.816Z,1016.62
2018-09-11T01:01:55.826Z,1016.60
2018-09-11T01:02:55.838Z,1016.59
2018-09-11T01:03:55.888Z,1016.59
2018-09-11T01:04:56.083Z,1016.66
2018-09-11T01:05:55.870Z,1016.63
2018-09-11T01:06:55.895Z,1016.65
2018-09-11T01:07:55.928Z,1016.68
2018-09-11T01:08:55.958Z,1016.67
2018-09-11T01:09:55.944Z,1016.67
2018-09-11T01:10:55.947Z,1016.73
2018-09-11T01:11:55.954Z,1016.74
2018-09-11T01:12:55.955Z,1016.76
2018-09-11T01:13:55.993Z,1016.75
2018-09-11T01:14:56.014Z,1016.74
2018-09-11T01:15:56.011Z,1016.69
2018-09-11T01:16:56.005Z,1016.67
2018-09-11T01:17:56.020Z,1016.71
2018-09-11T01:18:56.083Z,1016.74
2018-09-11T01:19:56.036Z,1016.76
2018-09-11T01:20:56.066Z,1016.73
2018-09-11T01:21:56.049Z,1016.74
2018-09-11T01:22:56.078Z,1016.75
2018-09-11T01:23:56.085Z,1016.79
2018-09-11T01:24:56.141Z,1016.82
2018-09-11T01:25:56.100Z,1016.85
2018-09-11T01:26:56.134Z,1016.89
2018-09-11T01:27:56.143Z,1016.86
2018-09-11T01:28:56.167Z,1016.83
2018-09-11T01:29:56.167Z,1016.82
2018-09-11T01:30:56.156Z,1016.83
2018-09-11T01:31:56.206Z,1016.82
2018-09-11T01:32:56.183Z,1016.78
2018-09-11T01:33:56.195Z,1016.78
2018-09-11T01:34:56.204Z,1016.74
2018-09-11T01:35:56.208Z,1016.72
2018-09-11T01:36:56.272Z,1016.74
2018-09-11T01:37:56.224Z,1016.72
2018-09-11T01:38:56.246Z,1016.69
2018-09-11T01:39:56.269Z,1016.69
2018-09-11T01:40:56.277Z,1016.71
2018-09-11T01:41:56.296Z,1016.68
2018-09-11T01:42:56.416Z,1016.67
2018-09-11T01:43:56.307Z,1016.63
2018-09-11T01:44:56.332Z,1016.59
2018-09-11T01:45:56.329Z,1016.61
2018-09-11T01:46:56.351Z,1016.57
2018-09-11T01:47:56.395Z,1016.57
2018-09-11T01:48:56.355Z,1016.54
2018-09-11T01:49:56.431Z,1016.55
2018-09-11T01:50:56.433Z,1016.52
2018-09-11T01:51:56.400Z,1016.53
2018-09-11T01:52:56.421Z,1016.54
2018-09-11T01:53:56.425Z,1016.52
2018-09-11T01:54:56.452Z,1016.50
2018-09-11T01:55:56.436Z,1016.48
2018-09-11T01:56:56.457Z,1016.47
2018-09-11T01:57:56.463Z,1016.45
2018-09-11T01:58:56.543Z,1016.48
2018-09-11T01:59:56.523Z,1016.50
2018-09-11T02:00:56.529Z,1016.48
2018-09-11T02:01:56.527Z,1016.48
2018-09-11T02:02:56.530Z,1016.51
2018-09-11T02:03:56.551Z,1016.45
2018-09-11T02:04:56.608Z,1016.47
2018-09-11T02:05:56.566Z,1016.47
2018-09-11T02:06:56.575Z,1016.49
2018-09-11T02:07:56.591Z,1016.52
2018-09-11T02:08:56.609Z,1016.51
2018-09-11T02:09:56.653Z,1016.53
2018-09-11T02:10:56.602Z,1016.55
2018-09-11T02:11:56.647Z,1016.55
2018-09-11T02:12:56.637Z,1016.55
2018-09-11T02:13:56.680Z,1016.50
2018-09-11T02:14:56.670Z,1016.53
2018-09-11T02:15:56.704Z,1016.56
2018-09-11T02:16:56.720Z,1016.53
2018-09-11T02:17:56.716Z,1016.54
2018-09-11T02:18:56.737Z,1016.54
2018-09-11T02:19:56.767Z,1016.53
2018-09-11T02:20:56.733Z,1016.54
2018-09-11T02:21:56.750Z,1016.58
2018-09-11T02:22:56.771Z,1016.60
2018-09-11T02:23:56.772Z,1016.53
2018-09-11T02:24:56.823Z,1016.57
2018-09-11T02:25:56.806Z,1016.57
2018-09-11T02:26:56.793Z,1016.51
2018-09-11T02:27:56.834Z,1016.49
2018-09-11T02:28:56.822Z,1016.48
2018-09-11T02:29:56.897Z,1016.51
2018-09-11T02:30:56.884Z,1016.53
2018-09-11T02:31:56.866Z,1016.50
2018-09-11T02:32:56.871Z,1016.53
2018-09-11T02:33:56.898Z,1016.51
2018-09-11T02:34:56.896Z,1016.47
2018-09-11T02:35:56.939Z,1016.46
2018-09-11T02:36:56.913Z,1016.45
2018-09-11T02:37:56.942Z,1016.42
2018-09-11T02:38:56.942Z,1016.44
2018-09-11T02:39:56.945Z,1016.44
2018-09-11T02:40:57.007Z,1016.43
2018-09-11T02:41:56.961Z,1016.48
2018-09-11T02:42:57.001Z,1016.46
2018-09-11T02:43:56.994Z,1016.44
2018-09-11T02:44:57.019Z,1016.49
2018-09-11T02:45:57.046Z,1016.49
2018-09-11T02:46:57.028Z,1016.51
2018-09-11T02:47:57.085Z,1016.48
2018-09-11T02:48:57.121Z,1016.44
2018-09-11T02:49:57.089Z,1016.44
2018-09-11T02:50:57.104Z,1016.49
2018-09-11T02:51:57.119Z,1016.48
2018-09-11T02:52:57.118Z,1016.45
2018-09-11T02:53:57.162Z,1016.47
2018-09-11T02:54:57.146Z,1016.49
2018-09-11T02:55:57.151Z,1016.50
2018-09-11T02:56:57.156Z,1016.51
2018-09-11T02:57:57.166Z,1016.51
2018-09-11T02:58:57.188Z,1016.50
2018-09-11T02:59:57.201Z,1016.52
2018-09-11T03:00:57.238Z,1016.52
2018-09-11T03:01:57.206Z,1016.56
2018-09-11T03:02:57.242Z,1016.56
2018-09-11T03:03:57.256Z,1016.55
2018-09-11T03:04:57.242Z,1016.56
2018-09-11T03:05:57.298Z,1016.57
2018-09-11T03:06:57.266Z,1016.63
2018-09-11T03:07:57.289Z,1016.63
2018-09-11T03:08:57.268Z,1016.65
2018-09-11T03:09:57.281Z,1016.62
2018-09-11T03:10:57.326Z,1016.60
2018-09-11T03:11:57.313Z,1016.56
2018-09-11T03:12:57.402Z,1016.59
2018-09-11T03:13:57.354Z,1016.63
2018-09-11T03:14:57.381Z,1016.64
2018-09-11T03:15:57.385Z,1016.64
2018-09-11T03:16:57.384Z,1016.60
2018-09-11T03:17:57.406Z,1016.63
2018-09-11T03:18:57.515Z,1016.61
2018-09-11T03:19:57.452Z,1016.68
2018-09-11T03:20:57.424Z,1016.66
2018-09-11T03:21:57.457Z,1016.74
2018-09-11T03:22:57.459Z,1016.71
2018-09-11T03:23:57.488Z,1016.73
2018-09-11T03:24:57.476Z,1016.77
2018-09-11T03:25:57.495Z,1016.76
2018-09-11T03:26:57.502Z,1016.77
2018-09-11T03:27:57.518Z,1016.76
2018-09-11T03:28:57.552Z,1016.75
2018-09-11T03:29:57.563Z,1016.76
2018-09-11T03:30:57.560Z,1016.77
2018-09-11T03:31:57.546Z,1016.79
2018-09-11T03:32:57.595Z,1016.79
2018-09-11T03:33:57.589Z,1016.81
2018-09-11T03:34:57.733Z,1016.81
2018-09-11T03:35:57.576Z,1016.81
2018-09-11T03:36:57.622Z,1016.81
2018-09-11T03:37:57.628Z,1016.81
2018-09-11T03:38:57.635Z,1016.76
2018-09-11T03:39:57.685Z,1016.79
2018-09-11T03:40:57.668Z,1016.77
2018-09-11T03:41:57.652Z,1016.76
2018-09-11T03:42:57.684Z,1016.81
2018-09-11T03:43:57.700Z,1016.75
2018-09-11T03:44:57.707Z,1016.74
2018-09-11T03:45:57.734Z,1016.72
2018-09-11T03:46:57.719Z,1016.71
2018-09-11T03:47:57.732Z,1016.74
2018-09-11T03:48:57.731Z,1016.73
2018-09-11T03:49:57.752Z,1016.69
2018-09-11T03:50:57.809Z,1016.73
2018-09-11T03:51:57.788Z,1016.71
2018-09-11T03:52:57.776Z,1016.71
2018-09-11T03:53:57.794Z,1016.72
2018-09-11T03:54:57.839Z,1016.74
2018-09-11T03:55:57.853Z,1016.77
2018-09-11T03:56:57.861Z,1016.74
2018-09-11T03:57:57.869Z,1016.75
2018-09-11T03:58:57.887Z,1016.74
2018-09-11T03:59:57.898Z,1016.73
2018-09-11T04:00:57.887Z,1016.77
2018-09-11T04:01:57.904Z,1016.75
2018-09-11T04:02:57.915Z,1016.73
2018-09-11T04:03:57.921Z,1016.77
2018-09-11T04:04:57.968Z,1016.75
2018-09-11T04:05:57.943Z,1016.78
2018-09-11T04:06:57.963Z,1016.76
2018-09-11T04:07:57.962Z,1016.76
2018-09-11T04:08:57.959Z,1016.79
2018-09-11T04:09:58.052Z,1016.75
2018-09-11T04:10:58.007Z,1016.75
2018-09-11T04:11:58.018Z,1016.78
2018-09-11T04:12:58.018Z,1016.76
2018-09-11T04:13:58.028Z,1016.77
2018-09-11T04:14:58.079Z,1016.80
2018-09-11T04:15:58.044Z,1016.79
2018-09-11T04:16:58.069Z,1016.76
2018-09-11T04:17:58.141Z,1016.79
2018-09-11T04:18:58.104Z,1016.79
2018-09-11T04:19:58.131Z,1016.81
2018-09-11T04:20:58.111Z,1016.81
2018-09-11T04:21:58.104Z,1016.82
2018-09-11T04:22:58.125Z,1016.80
2018-09-11T04:23:58.140Z,1016.78
2018-09-11T04:24:58.158Z,1016.79
2018-09-11T04:25:58.169Z,1016.78
2018-09-11T04:26:58.190Z,1016.76
2018-09-11T04:27:58.211Z,1016.74
2018-09-11T04:28:58.231Z,1016.78
2018-09-11T04:29:58.205Z,1016.79
2018-09-11T04:30:58.238Z,1016.77
2018-09-11T04:31:58.249Z,1016.78
2018-09-11T04:32:58.557Z,1016.79
2018-09-11T04:33:58.275Z,1016.77
2018-09-11T04:34:58.299Z,1016.77
2018-09-11T04:35:58.347Z,1016.75
2018-09-11T04:36:58.289Z,1016.74
2018-09-11T04:37:58.393Z,1016.74
2018-09-11T04:38:58.317Z,1016.73
2018-09-11T04:39:58.320Z,1016.69
2018-09-11T04:40:58.378Z,1016.67
2018-09-11T04:41:58.468Z,1016.70
2018-09-11T04:42:58.496Z,1016.71
2018-09-11T04:43:58.372Z,1016.69
2018-09-11T04:44:58.388Z,1016.72
2018-09-11T04:45:58.435Z,1016.71
2018-09-11T04:46:58.431Z,1016.69
2018-09-11T04:47:58.434Z,1016.70
2018-09-11T04:48:58.491Z,1016.66
2018-09-11T04:49:58.454Z,1016.69
2018-09-11T04:50:58.453Z,1016.67
2018-09-11T04:51:58.449Z,1016.68
2018-09-11T04:52:58.467Z,1016.67
2018-09-11T04:53:58.550Z,1016.66
2018-09-11T04:54:58.476Z,1016.65
2018-09-11T04:55:58.658Z,1016.67
2018-09-11T04:56:58.534Z,1016.66
2018-09-11T04:57:58.514Z,1016.61
2018-09-11T04:58:58.554Z,1016.63
2018-09-11T04:59:58.550Z,1016.62
2018-09-11T05:00:58.563Z,1016.60
2018-09-11T05:01:59.055Z,1016.55
2018-09-11T05:02:58.591Z,1016.57
2018-09-11T05:03:58.637Z,1016.59
2018-09-11T05:04:58.616Z,1016.55
2018-09-11T05:05:58.619Z,1016.53
2018-09-11T05:06:58.693Z,1016.51
2018-09-11T05:07:58.664Z,1016.52
2018-09-11T05:08:58.676Z,1016.53
2018-09-11T05:09:58.649Z,1016.54
2018-09-11T05:10:58.710Z,1016.54
2018-09-11T05:11:58.696Z,1016.55
2018-09-11T05:12:58.701Z,1016.56
2018-09-11T05:13:58.763Z,1016.55
2018-09-11T05:14:58.736Z,1016.58
2018-09-11T05:15:58.742Z,1016.54
2018-09-11T05:16:58.753Z,1016.49
2018-09-11T05:17:58.786Z,1016.50
2018-09-11T05:18:58.864Z,1016.52
2018-09-11T05:19:58.774Z,1016.52
2018-09-11T05:20:58.797Z,1016.52
2018-09-11T05:21:58.810Z,1016.50
2018-09-11T05:22:58.820Z,1016.51
2018-09-11T05:23:58.857Z,1016.52
2018-09-11T05:24:58.840Z,1016.53
2018-09-11T05:25:58.839Z,1016.50
2018-09-11T05:26:58.870Z,1016.48
2018-09-11T05:27:58.870Z,1016.47
2018-09-11T05:28:58.925Z,1016.48
2018-09-11T05:29:58.916Z,1016.49
2018-09-11T05:30:58.910Z,1016.50
2018-09-11T05:31:58.913Z,1016.50
2018-09-11T05:32:58.932Z,1016.53
2018-09-11T05:33:58.941Z,1016.52
2018-09-11T05:34:58.993Z,1016.55
2018-09-11T05:35:59.015Z,1016.55
2018-09-11T05:36:58.956Z,1016.57
2018-09-11T05:37:59.004Z,1016.58
2018-09-11T05:38:59.083Z,1016.56
2018-09-11T05:39:59.004Z,1016.56
2018-09-11T05:40:59.034Z,1016.57
2018-09-11T05:41:59.032Z,1016.58
2018-09-11T05:42:59.023Z,1016.58
2018-09-11T05:43:59.068Z,1016.54
2018-09-11T05:44:59.081Z,1016.57
2018-09-11T05:45:59.131Z,1016.56
2018-09-11T05:46:59.126Z,1016.55
2018-09-11T05:47:59.112Z,1016.52
2018-09-11T05:48:59.105Z,1016.56
2018-09-11T05:49:59.170Z,1016.59
2018-09-11T05:50:59.184Z,1016.63
2018-09-11T05:51:59.172Z,1016.62
2018-09-11T05:52:59.225Z,1016.65
2018-09-11T05:53:59.172Z,1016.61
2018-09-11T05:54:59.197Z,1016.61
2018-09-11T05:55:59.190Z,1016.61
2018-09-11T05:56:59.231Z,1016.62
2018-09-11T05:57:59.249Z,1016.61
2018-09-11T05:58:59.254Z,1016.61
2018-09-11T05:59:59.242Z,1016.61
2018-09-11T06:00:59.274Z,1016.63
2018-09-11T06:01:59.329Z,1016.63
2018-09-11T06:02:59.282Z,1016.63
2018-09-11T06:03:59.332Z,1016.64
2018-09-11T06:04:59.314Z,1016.63
2018-09-11T06:05:59.322Z,1016.67
2018-09-11T06:06:59.340Z,1016.63
2018-09-11T06:07:59.367Z,1016.64
2018-09-11T06:08:59.375Z,1016.67
2018-09-11T06:09:59.352Z,1016.66
2018-09-11T06:10:59.353Z,1016.66
2018-09-11T06:11:59.386Z,1016.67
2018-09-11T06:12:59.452Z,1016.72
2018-09-11T06:13:59.429Z,1016.68
2018-09-11T06:14:59.425Z,1016.69
2018-09-11T06:15:59.430Z,1016.69
2018-09-11T06:16:59.481Z,1016.68
2018-09-11T06:17:59.446Z,1016.68
2018-09-11T06:18:59.488Z,1016.66
2018-09-11T06:19:59.505Z,1016.69
2018-09-11T06:20:59.467Z,1016.69
2018-09-11T06:21:59.512Z,1016.72
2018-09-11T06:22:59.521Z,1016.70
2018-09-11T06:23:59.525Z,1016.63
2018-09-11T06:24:59.567Z,1016.64
2018-09-11T06:25:59.553Z,1016.60
2018-09-11T06:26:59.596Z,1016.61
2018-09-11T06:27:59.576Z,1016.58
2018-09-11T06:28:59.568Z,1016.60
2018-09-11T06:29:59.624Z,1016.60
2018-09-11T06:30:59.613Z,1016.58
2018-09-11T06:31:59.621Z,1016.63
2018-09-11T06:32:59.643Z,1016.60
2018-09-11T06:33:59.639Z,1016.59
2018-09-11T06:34:59.659Z,1016.58
2018-09-11T06:35:59.673Z,1016.54
2018-09-11T06:36:59.671Z,1016.55
2018-09-11T06:37:59.710Z,1016.56
2018-09-11T06:38:59.689Z,1016.56
2018-09-11T06:39:59.703Z,1016.55
2018-09-11T06:40:59.777Z,1016.60
2018-09-11T06:41:59.734Z,1016.58
2018-09-11T06:42:59.861Z,1016.56
2018-09-11T06:43:59.762Z,1016.57
2018-09-11T06:44:59.788Z,1016.55
2018-09-11T06:45:59.816Z,1016.55
2018-09-11T06:46:59.841Z,1016.52
2018-09-11T06:47:59.837Z,1016.52
2018-09-11T06:48:59.805Z,1016.51
2018-09-11T06:49:59.996Z,1016.55
2018-09-11T06:50:59.848Z,1016.55
2018-09-11T06:51:59.874Z,1016.51
2018-09-11T06:52:59.874Z,1016.50
2018-09-11T06:53:59.872Z,1016.48
2018-09-11T06:54:59.879Z,1016.46
2018-09-11T06:55:59.905Z,1016.49
2018-09-11T06:56:59.972Z,1016.49
2018-09-11T06:57:59.931Z,1016.44
2018-09-11T06:58:59.978Z,1016.47
2018-09-11T07:00:00.224Z,1016.48
2018-09-11T07:00:59.970Z,1016.46
2018-09-11T07:02:00.070Z,1016.47
2018-09-11T07:02:59.998Z,1016.40
2018-09-11T07:03:59.997Z,1016.40
2018-09-11T07:05:00.214Z,1016.41
2018-09-11T07:06:00.222Z,1016.40
2018-09-11T07:07:00.037Z,1016.41
2018-09-11T07:08:00.097Z,1016.39
2018-09-11T07:09:00.078Z,1016.39
2018-09-11T07:10:00.058Z,1016.35
2018-09-11T07:11:00.078Z,1016.32
2018-09-11T07:12:00.158Z,1016.36
2018-09-11T07:13:00.128Z,1016.36
2018-09-11T07:14:00.203Z,1016.35
2018-09-11T07:15:00.148Z,1016.35
2018-09-11T07:16:00.197Z,1016.39
2018-09-11T07:17:01.032Z,1016.35
2018-09-11T07:18:00.266Z,1016.36
2018-09-11T07:19:00.221Z,1016.35
2018-09-11T07:20:00.302Z,1016.38
2018-09-11T07:21:00.280Z,1016.39
2018-09-11T07:22:00.230Z,1016.37
2018-09-11T07:23:00.268Z,1016.35
2018-09-11T07:24:00.259Z,1016.41
2018-09-11T07:25:00.783Z,1016.41
2018-09-11T07:26:00.281Z,1016.42
2018-09-11T07:27:00.298Z,1016.36
2018-09-11T07:28:04.902Z,1016.33
2018-09-11T07:29:00.318Z,1016.36
2018-09-11T07:30:00.391Z,1016.37
2018-09-11T07:31:00.331Z,1016.36
2018-09-11T07:32:00.339Z,1016.42
2018-09-11T07:33:00.344Z,1016.38
2018-09-11T07:34:00.417Z,1016.35
2018-09-11T07:35:00.389Z,1016.37
2018-09-11T07:36:01.401Z,1016.30
2018-09-11T07:37:00.421Z,1016.36
2018-09-11T07:38:00.555Z,1016.35
2018-09-11T07:39:00.529Z,1016.39
2018-09-11T07:40:00.864Z,1016.36
2018-09-11T07:41:00.670Z,1016.31
2018-09-11T07:42:00.627Z,1016.27
2018-09-11T07:43:00.487Z,1016.23
2018-09-11T07:44:00.507Z,1016.23
2018-09-11T07:45:00.573Z,1016.25
2018-09-11T07:46:00.556Z,1016.19
2018-09-11T07:47:00.533Z,1016.18
2018-09-11T07:48:00.582Z,1016.20
2018-09-11T07:49:00.595Z,1016.15
2018-09-11T07:50:00.604Z,1016.16
2018-09-11T07:51:00.622Z,1016.14
2018-09-11T07:52:00.618Z,1016.16
2018-09-11T07:53:00.697Z,1016.14
2018-09-11T07:54:00.637Z,1016.14
2018-09-11T07:55:00.655Z,1016.18
2018-09-11T07:56:00.683Z,1016.15
2018-09-11T07:57:00.700Z,1016.23
2018-09-11T07:58:00.798Z,1016.21
2018-09-11T07:59:01.313Z,1016.20
2018-09-11T08:00:00.735Z,1016.23
2018-09-11T08:01:00.739Z,1016.23
2018-09-11T08:02:00.764Z,1016.19
2018-09-11T08:03:00.802Z,1016.23
2018-09-11T08:04:00.922Z,1016.25
2018-09-11T08:05:00.860Z,1016.27
2018-09-11T08:06:00.806Z,1016.29
2018-09-11T08:07:00.826Z,1016.28
2018-09-11T08:08:00.857Z,1016.25
2018-09-11T08:09:00.831Z,1016.27
2018-09-11T08:10:00.867Z,1016.26
2018-09-11T08:11:00.861Z,1016.26
2018-09-11T08:12:00.966Z,1016.23
2018-09-11T08:13:00.880Z,1016.30
2018-09-11T08:14:00.943Z,1016.31
2018-09-11T08:15:00.898Z,1016.26
2018-09-11T08:16:00.922Z,1016.32
2018-09-11T08:17:00.974Z,1016.33
2018-09-11T08:18:00.964Z,1016.29
2018-09-11T08:19:00.966Z,1016.31
2018-09-11T08:20:00.997Z,1016.33
2018-09-11T08:21:00.974Z,1016.31
2018-09-11T08:22:00.993Z,1016.28
2018-09-11T08:23:01.031Z,1016.27
2018-09-11T08:24:01.031Z,1016.21
2018-09-11T08:25:01.045Z,1016.21
2018-09-11T08:26:01.051Z,1016.21
2018-09-11T08:27:01.065Z,1016.15
2018-09-11T08:28:01.142Z,1016.18
2018-09-11T08:29:01.089Z,1016.17
2018-09-11T08:30:01.104Z,1016.22
2018-09-11T08:31:01.109Z,1016.25
2018-09-11T08:32:01.127Z,1016.19
2018-09-11T08:33:01.173Z,1016.17
2018-09-11T08:34:01.154Z,1016.17
2018-09-11T08:35:01.180Z,1016.14
2018-09-11T08:36:01.188Z,1016.15
2018-09-11T08:37:01.268Z,1016.13
2018-09-11T08:38:01.231Z,1016.14
2018-09-11T08:39:01.234Z,1016.15
2018-09-11T08:40:01.240Z,1016.16
2018-09-11T08:41:01.321Z,1016.18
2018-09-11T08:42:01.271Z,1016.14
2018-09-11T08:43:01.261Z,1016.18
2018-09-11T08:44:01.291Z,1016.23
2018-09-11T08:45:01.296Z,1016.16
2018-09-11T08:46:01.303Z,1016.12
2018-09-11T08:47:01.354Z,1016.11
2018-09-11T08:48:01.344Z,1016.12
2018-09-11T08:49:01.368Z,1016.06
2018-09-11T08:50:01.396Z,1016.00
2018-09-11T08:51:01.365Z,1016.03
2018-09-11T08:52:01.451Z,1015.98
2018-09-11T08:53:01.392Z,1015.97
2018-09-11T08:54:01.400Z,1015.92
2018-09-11T08:55:01.446Z,1015.94
2018-09-11T08:56:01.429Z,1015.84
2018-09-11T08:57:01.456Z,1015.84
2018-09-11T08:58:01.464Z,1015.83
2018-09-11T08:59:01.469Z,1015.85
2018-09-11T09:00:01.470Z,1015.82
2018-09-11T09:01:01.495Z,1015.79
2018-09-11T09:02:01.506Z,1015.75
2018-09-11T09:03:01.733Z,1015.81
2018-09-11T09:04:01.570Z,1015.80
2018-09-11T09:05:01.569Z,1015.81
2018-09-11T09:06:01.560Z,1015.83
2018-09-11T09:07:01.581Z,1015.80
2018-09-11T09:08:01.596Z,1015.83
2018-09-11T09:09:01.648Z,1015.81
2018-09-11T09:10:01.628Z,1015.84
2018-09-11T09:11:01.668Z,1015.86
2018-09-11T09:12:01.643Z,1015.88
2018-09-11T09:13:01.749Z,1015.80
2018-09-11T09:14:01.667Z,1015.78
2018-09-11T09:15:01.687Z,1015.77
2018-09-11T09:16:01.766Z,1015.75
2018-09-11T09:17:01.729Z,1015.79
2018-09-11T09:18:01.733Z,1015.81
2018-09-11T09:19:01.728Z,1015.76
2018-09-11T09:20:01.759Z,1015.81
2018-09-11T09:21:01.826Z,1015.73
2018-09-11T09:22:01.826Z,1015.71
2018-09-11T09:23:01.812Z,1015.68
2018-09-11T09:24:01.797Z,1015.70
2018-09-11T09:25:01.818Z,1015.67
2018-09-11T09:26:01.820Z,1015.68
2018-09-11T09:27:01.998Z,1015.74
2018-09-11T09:28:01.855Z,1015.72
2018-09-11T09:29:01.868Z,1015.87
2018-09-11T09:30:01.881Z,1015.90
2018-09-11T09:31:01.891Z,1015.93
2018-09-11T09:32:01.904Z,1015.89
2018-09-11T09:33:01.971Z,1015.85
2018-09-11T09:34:01.904Z,1015.78
2018-09-11T09:35:01.938Z,1015.82
2018-09-11T09:36:01.942Z,1015.82
2018-09-11T09:37:01.985Z,1015.81
2018-09-11T09:38:02.039Z,1015.75
2018-09-11T09:39:01.990Z,1015.71
2018-09-11T09:40:02.017Z,1015.67
2018-09-11T09:41:02.019Z,1015.65
2018-09-11T09:42:02.031Z,1015.62
2018-09-11T09:43:02.091Z,1015.57
2018-09-11T09:44:02.053Z,1015.54
2018-09-11T09:45:02.109Z,1015.52
2018-09-11T09:46:02.111Z,1015.45
2018-09-11T09:47:02.090Z,1015.34
2018-09-11T09:48:02.116Z,1015.36
2018-09-11T09:49:02.127Z,1015.34
2018-09-11T09:50:02.143Z,1015.33
2018-09-11T09:51:02.179Z,1015.35
2018-09-11T09:52:02.179Z,1015.38
2018-09-11T09:53:02.184Z,1015.39
2018-09-11T09:54:02.232Z,1015.38
2018-09-11T09:55:02.209Z,1015.33
2018-09-11T09:56:02.232Z,1015.32
2018-09-11T09:57:02.223Z,1015.30
2018-09-11T09:58:02.273Z,1015.32
2018-09-11T09:59:02.305Z,1015.37
2018-09-11T10:00:02.281Z,1015.36
2018-09-11T10:01:02.312Z,1015.30
2018-09-11T10:02:02.325Z,1015.31
2018-09-11T10:03:02.319Z,1015.31
2018-09-11T10:04:02.569Z,1015.36
2018-09-11T10:05:02.354Z,1015.37
2018-09-11T10:06:02.396Z,1015.35
2018-09-11T10:07:02.386Z,1015.43
2018-09-11T10:08:02.403Z,1015.44
2018-09-11T10:09:02.621Z,1015.43
2018-09-11T10:10:05.070Z,1015.47
2018-09-11T10:11:02.422Z,1015.51
2018-09-11T10:12:02.471Z,1015.46
2018-09-11T10:13:02.479Z,1015.45
2018-09-11T10:14:02.496Z,1015.45
2018-09-11T10:15:02.545Z,1015.41
2018-09-11T10:16:02.522Z,1015.36
2018-09-11T10:17:04.439Z,1015.34
2018-09-11T10:18:02.522Z,1015.40
2018-09-11T10:19:02.589Z,1015.41
2018-09-11T10:20:02.594Z,1015.37
2018-09-11T10:21:02.608Z,1015.39
2018-09-11T10:22:02.636Z,1015.36
2018-09-11T10:23:02.642Z,1015.31
2018-09-11T10:24:02.659Z,1015.28
2018-09-11T10:25:02.732Z,1015.28
2018-09-11T10:26:02.662Z,1015.27
2018-09-11T10:27:02.669Z,1015.27
2018-09-11T10:28:02.688Z,1015.26
2018-09-11T10:29:02.729Z,1015.29
2018-09-11T10:30:02.761Z,1015.26
2018-09-11T10:31:02.718Z,1015.26
2018-09-11T10:32:02.737Z,1015.29
2018-09-11T10:33:02.779Z,1015.28
2018-09-11T10:34:02.766Z,1015.22
2018-09-11T10:35:02.799Z,1015.28
2018-09-11T10:36:02.780Z,1015.27
2018-09-11T10:37:02.799Z,1015.23
2018-09-11T10:38:02.895Z,1015.28
2018-09-11T10:39:02.821Z,1015.26
2018-09-11T10:40:02.862Z,1015.29
2018-09-11T10:41:02.887Z,1015.26
2018-09-11T10:42:02.924Z,1015.25
2018-09-11T10:43:03.040Z,1015.26
2018-09-11T10:44:02.901Z,1015.22
2018-09-11T10:45:02.987Z,1015.21
2018-09-11T10:46:02.938Z,1015.19
2018-09-11T10:47:02.966Z,1015.27
2018-09-11T10:48:03.082Z,1015.25
2018-09-11T10:49:02.963Z,1015.22
2018-09-11T10:50:03.002Z,1015.19
2018-09-11T10:51:03.098Z,1015.14
2018-09-11T10:52:03.054Z,1015.21
2018-09-11T10:53:03.027Z,1015.29
2018-09-11T10:54:03.025Z,1015.26
2018-09-11T10:55:03.077Z,1015.17
2018-09-11T10:56:03.080Z,1015.24
2018-09-11T10:57:03.101Z,1015.23
2018-09-11T10:58:03.181Z,1015.20
2018-09-11T10:59:03.629Z,1015.24
2018-09-11T11:00:03.155Z,1015.20
2018-09-11T11:01:03.175Z,1015.18
2018-09-11T11:02:03.142Z,1015.14
2018-09-11T11:03:03.172Z,1015.12
2018-09-11T11:04:03.184Z,1015.16
2018-09-11T11:05:03.209Z,1015.10
2018-09-11T11:06:03.191Z,1015.09
2018-09-11T11:07:03.260Z,1015.12
2018-09-11T11:08:03.223Z,1015.14
2018-09-11T11:09:03.275Z,1015.16
2018-09-11T11:10:03.252Z,1015.17
2018-09-11T11:11:03.280Z,1015.16
2018-09-11T11:12:03.356Z,1015.17
2018-09-11T11:13:03.313Z,1015.10
2018-09-11T11:14:03.313Z,1015.13
2018-09-11T11:15:03.556Z,1015.15
2018-09-11T11:16:03.331Z,1015.17
2018-09-11T11:17:03.362Z,1015.13
2018-09-11T11:18:03.352Z,1015.12
2018-09-11T11:19:03.391Z,1015.14
2018-09-11T11:20:04.066Z,1015.12
2018-09-11T11:21:03.490Z,1015.05
2018-09-11T11:22:03.440Z,1015.02
2018-09-11T11:23:03.450Z,1015.09
2018-09-11T11:24:03.474Z,1015.14
2018-09-11T11:25:03.479Z,1015.14
2018-09-11T11:26:03.482Z,1015.14
2018-09-11T11:27:03.622Z,1015.09
2018-09-11T11:28:03.497Z,1015.19
2018-09-11T11:29:03.509Z,1015.20
2018-09-11T11:30:03.702Z,1015.25
2018-09-11T11:31:03.555Z,1015.16
2018-09-11T11:32:03.570Z,1015.15
2018-09-11T11:33:03.577Z,1015.09
2018-09-11T11:34:03.586Z,1015.06
2018-09-11T11:35:03.577Z,1015.04
2018-09-11T11:36:03.686Z,1015.02
2018-09-11T11:37:03.741Z,1015.05
2018-09-11T11:38:03.694Z,1015.07
2018-09-11T11:39:03.715Z,1015.02
2018-09-11T11:40:03.678Z,1015.02
2018-09-11T11:41:03.675Z,1015.06
2018-09-11T11:42:03.793Z,1015.05
2018-09-11T11:43:03.692Z,1015.08
2018-09-11T11:44:03.805Z,1015.10
2018-09-11T11:45:03.761Z,1015.11
2018-09-11T11:46:03.786Z,1015.11
2018-09-11T11:47:03.768Z,1015.09
2018-09-11T11:48:03.823Z,1015.07
2018-09-11T11:49:03.839Z,1015.09
2018-09-11T11:50:03.821Z,1015.09
2018-09-11T11:51:03.946Z,1015.08
2018-09-11T11:52:03.840Z,1015.15
2018-09-11T11:53:03.866Z,1015.06
2018-09-11T11:54:03.877Z,1015.04
2018-09-11T11:55:03.941Z,1015.06
2018-09-11T11:56:03.967Z,1015.10
2018-09-11T11:57:03.943Z,1015.12
2018-09-11T11:58:03.932Z,1015.14
2018-09-11T11:59:03.940Z,1015.14
2018-09-11T12:00:03.959Z,1015.15
2018-09-11T12:01:04.242Z,1015.12
2018-09-11T12:02:04.080Z,1015.12
2018-09-11T12:03:04.020Z,1015.14
2018-09-11T12:04:04.036Z,1015.12
2018-09-11T12:05:04.005Z,1015.11
2018-09-11T12:06:04.047Z,1015.05